SBSV/SSA METAR and TAF weather

Enter ICAO airport designator
Station Type Date Time Source
SBSV METAR 2019/10/15 04:00 UTC NOAA

SBSV 150400Z 08010KT 9999 SCT020 26/22 Q1015


Station Type Date Time Source
SBSV Decoded METAR 2019/10/15 04:00 UTC NOAA

Salvador Aeroporto , Brazil (SBSV) 12-54S 038-20W 13M
Oct 15, 2019 - 12:00 AM EDT / 2019.10.15 0400 UTC
Wind: from the E (080 degrees) at 12 MPH (10 KT):0
Visibility: greater than 7 mile(s):0
Sky conditions: partly cloudy
Temperature: 78 F (26 C)
Dew Point: 71 F (22 C)
Relative Humidity: 78%
Pressure (altimeter): 29.97 in. Hg (1015 hPa)
ob: SBSV 150400Z 08010KT 9999 SCT020 26/22 Q1015
cycle: 4

Station Type Date Time Source
SBSV TAF 2019/10/15 06:27 UTC NOAA

TAF SBSV 150400Z 1506/1606 09005KT 9999 SCT020 TN25/1508Z TX28/1517Z
BECMG 1517/1519 08010KT FEW023
BECMG 1523/1601 09008KT SCT023
RMK PAY

Example: see airport list